Olympia, Washington
Current Conditions -  °F | °C
As of 6:54 PM on Thursday 27 Nov 2014 (Local Time) from KOLM Reporting Station
Overcast Overcast  
Wind Chill: 53°   Ceiling: 1400
Heat Index: 53°   Visibility: 10mi
Dew Point: 51°   Wind: 12mph
Humidity: 93%   Direction: 200°SSW
Pressure: 29.79"   Gusts: NA
Location:  47.04°N, 122.89°W
Report Text: KOLM 280254Z 20010KT 10SM SCT009 BKN014 OVC021 12/11 A2979 RMK AO2 RAE50 SLP087 P0003 60024 T01170106 55006
Loading
Personal Weather Stations






























Interactive Weather Map New forecast layout! Learn more

10-Day Weather Forecast

Advertisements
Track Severe Weather on mobile